createdAt,value
2018-12-05T00:00:44.405Z,93.13
2018-12-05T00:01:47.034Z,93.22
2018-12-05T00:02:49.699Z,93.67
2018-12-05T00:03:52.349Z,93.69
2018-12-05T00:04:55.010Z,93.20
2018-12-05T00:05:57.631Z,93.28
2018-12-05T00:07:00.523Z,93.91
2018-12-05T00:08:03.173Z,93.47
2018-12-05T00:09:05.948Z,93.47
2018-12-05T00:10:08.533Z,93.61
2018-12-05T00:11:11.180Z,93.58
2018-12-05T00:12:13.801Z,93.57
2018-12-05T00:13:16.711Z,93.73
2018-12-05T00:14:19.378Z,93.46
2018-12-05T00:15:21.957Z,93.53
2018-12-05T00:16:24.611Z,93.73
2018-12-05T00:17:27.247Z,94.22
2018-12-05T00:18:29.883Z,94.46
2018-12-05T00:19:32.990Z,94.07
2018-12-05T00:20:36.641Z,94.25
2018-12-05T00:21:39.288Z,93.98
2018-12-05T00:22:41.882Z,94.17
2018-12-05T00:23:44.591Z,93.90
2018-12-05T00:24:47.203Z,93.95
2018-12-05T00:25:50.248Z,94.01
2018-12-05T00:26:52.910Z,94.14
2018-12-05T00:27:55.594Z,94.04
2018-12-05T00:28:58.240Z,93.98
2018-12-05T00:30:00.917Z,93.98
2018-12-05T00:31:03.546Z,94.19
2018-12-05T00:32:06.711Z,94.37
2018-12-05T00:33:09.351Z,93.87
2018-12-05T00:34:12.037Z,94.09
2018-12-05T00:35:14.667Z,93.65
2018-12-05T00:36:17.395Z,93.44
2018-12-05T00:37:20.054Z,93.23
2018-12-05T00:38:23.097Z,93.24
2018-12-05T00:39:25.757Z,93.72
2018-12-05T00:40:28.416Z,93.67
2018-12-05T00:41:31.060Z,93.37
2018-12-05T00:42:33.720Z,94.05
2018-12-05T00:43:36.328Z,93.79
2018-12-05T00:44:39.269Z,93.88
2018-12-05T00:45:41.939Z,93.69
2018-12-05T00:46:44.624Z,93.56
2018-12-05T00:47:47.288Z,93.81
2018-12-05T00:48:49.924Z,93.09
2018-12-05T00:49:53.072Z,93.25
2018-12-05T00:50:56.172Z,93.98
2018-12-05T00:51:58.839Z,93.43
2018-12-05T00:53:01.473Z,93.77
2018-12-05T00:54:04.149Z,93.82
2018-12-05T00:55:07.029Z,93.86
2018-12-05T00:56:09.656Z,93.97
2018-12-05T00:57:12.796Z,93.65
2018-12-05T00:58:16.515Z,94.01
2018-12-05T00:59:19.139Z,94.04
2018-12-05T01:00:21.788Z,93.67
2018-12-05T01:01:25.921Z,93.76
2018-12-05T01:02:28.560Z,93.76
2018-12-05T01:03:32.584Z,93.91
2018-12-05T01:04:35.251Z,93.69
2018-12-05T01:05:37.912Z,94.18
2018-12-05T01:06:40.598Z,94.07
2018-12-05T01:07:43.172Z,93.75
2018-12-05T01:08:46.438Z,94.24
2018-12-05T01:09:49.530Z,94.33
2018-12-05T01:10:53.279Z,93.65
2018-12-05T01:11:55.875Z,94.22
2018-12-05T01:12:58.565Z,94.48
2018-12-05T01:14:01.565Z,94.33
2018-12-05T01:15:04.643Z,94.22
2018-12-05T01:16:08.282Z,94.09
2018-12-05T01:17:11.220Z,93.63
2018-12-05T01:18:14.540Z,93.89
2018-12-05T01:19:17.279Z,93.30
2018-12-05T01:20:20.291Z,93.99
2018-12-05T01:21:22.953Z,93.47
2018-12-05T01:22:26.022Z,94.03
2018-12-05T01:23:28.712Z,94.26
2018-12-05T01:24:31.453Z,93.75
2018-12-05T01:25:34.110Z,93.70
2018-12-05T01:26:36.963Z,93.42
2018-12-05T01:27:39.761Z,94.16
2018-12-05T01:28:43.007Z,93.74
2018-12-05T01:29:45.916Z,93.69
2018-12-05T01:30:48.651Z,93.52
2018-12-05T01:31:51.551Z,93.77
2018-12-05T01:32:54.477Z,93.98
2018-12-05T01:33:57.152Z,93.96
2018-12-05T01:35:00.714Z,94.10
2018-12-05T01:36:06.831Z,93.86
2018-12-05T01:37:09.654Z,93.97
2018-12-05T01:38:12.309Z,94.12
2018-12-05T01:39:15.334Z,93.89
2018-12-05T01:40:18.008Z,94.48
2018-12-05T01:41:21.060Z,94.35
2018-12-05T01:42:23.709Z,94.49
2018-12-05T01:43:30.609Z,94.45
2018-12-05T01:44:33.221Z,94.00
2018-12-05T01:45:35.994Z,94.50
2018-12-05T01:46:39.497Z,93.66
2018-12-05T01:47:42.590Z,93.56
2018-12-05T01:48:45.310Z,93.51
2018-12-05T01:49:48.001Z,94.11
2018-12-05T01:50:51.049Z,93.88
2018-12-05T01:51:54.000Z,94.00
2018-12-05T01:52:57.522Z,93.89
2018-12-05T01:54:00.596Z,93.95
2018-12-05T01:55:03.308Z,93.70
2018-12-05T01:56:05.917Z,93.80
2018-12-05T01:57:08.819Z,93.51
2018-12-05T01:58:11.655Z,93.93
2018-12-05T01:59:14.523Z,93.53
2018-12-05T02:00:17.694Z,93.63
2018-12-05T02:01:20.509Z,93.92
2018-12-05T02:02:23.116Z,93.51
2018-12-05T02:03:25.777Z,93.38
2018-12-05T02:04:28.420Z,93.57
2018-12-05T02:05:31.076Z,94.05
2018-12-05T02:06:34.397Z,94.04
2018-12-05T02:07:37.128Z,94.03
2018-12-05T02:08:39.710Z,93.78
2018-12-05T02:09:44.432Z,93.85
2018-12-05T02:10:47.075Z,93.61
2018-12-05T02:11:49.696Z,93.77
2018-12-05T02:12:52.662Z,93.79
2018-12-05T02:13:55.432Z,93.91
2018-12-05T02:14:58.389Z,94.03
2018-12-05T02:16:01.198Z,93.98
2018-12-05T02:17:03.842Z,94.15
2018-12-05T02:18:06.932Z,94.02
2018-12-05T02:19:09.949Z,94.23
2018-12-05T02:20:12.549Z,94.28
2018-12-05T02:21:15.195Z,94.48
2018-12-05T02:22:17.877Z,93.81
2018-12-05T02:23:20.566Z,94.43
2018-12-05T02:24:23.183Z,94.74
2018-12-05T02:25:26.140Z,94.51
2018-12-05T02:26:28.775Z,94.92
2018-12-05T02:27:31.484Z,94.83
2018-12-05T02:28:34.116Z,94.33
2018-12-05T02:29:41.805Z,94.79
2018-12-05T02:30:44.761Z,94.54
2018-12-05T02:31:47.387Z,94.47
2018-12-05T02:32:50.026Z,94.58
2018-12-05T02:33:52.680Z,94.54
2018-12-05T02:34:55.290Z,94.22
2018-12-05T02:35:57.946Z,94.61
2018-12-05T02:37:02.092Z,94.81
2018-12-05T02:38:04.763Z,94.66
2018-12-05T02:39:07.379Z,94.49
2018-12-05T02:40:10.046Z,94.24
2018-12-05T02:41:12.724Z,94.29
2018-12-05T02:42:15.333Z,94.38
2018-12-05T02:43:18.228Z,94.62
2018-12-05T02:44:20.902Z,94.58
2018-12-05T02:45:23.502Z,95.08
2018-12-05T02:46:26.138Z,95.27
2018-12-05T02:47:28.777Z,95.31
2018-12-05T02:48:31.407Z,95.17
2018-12-05T02:49:35.173Z,94.82
2018-12-05T02:50:38.331Z,94.84
2018-12-05T02:51:41.619Z,95.46
2018-12-05T02:52:45.186Z,95.52
2018-12-05T02:53:47.894Z,95.55
2018-12-05T02:54:51.614Z,94.93
2018-12-05T02:55:54.868Z,94.87
2018-12-05T02:56:57.596Z,95.29
2018-12-05T02:58:00.422Z,95.23
2018-12-05T02:59:03.389Z,94.94
2018-12-05T03:00:06.023Z,95.36
2018-12-05T03:01:08.701Z,95.10
2018-12-05T03:02:12.142Z,94.68
2018-12-05T03:03:14.839Z,95.82
2018-12-05T03:04:17.490Z,95.32
2018-12-05T03:05:20.653Z,95.69
2018-12-05T03:06:23.278Z,95.54
2018-12-05T03:07:25.883Z,95.46
2018-12-05T03:08:29.029Z,95.50
2018-12-05T03:09:31.706Z,95.84
2018-12-05T03:10:35.048Z,96.19
2018-12-05T03:11:37.878Z,95.22
2018-12-05T03:12:40.511Z,95.47
2018-12-05T03:13:43.597Z,95.58
2018-12-05T03:14:46.939Z,95.42
2018-12-05T03:15:49.553Z,95.99
2018-12-05T03:16:52.152Z,95.83
2018-12-05T03:17:54.731Z,95.56
2018-12-05T03:18:58.277Z,95.52
2018-12-05T03:20:00.963Z,95.99
2018-12-05T03:21:04.014Z,96.04
2018-12-05T03:22:06.676Z,95.89
2018-12-05T03:23:09.307Z,95.91
2018-12-05T03:24:11.909Z,96.16
2018-12-05T03:25:15.200Z,96.12
2018-12-05T03:26:17.828Z,96.21
2018-12-05T03:27:20.749Z,96.00
2018-12-05T03:28:23.413Z,95.99
2018-12-05T03:29:26.721Z,95.56
2018-12-05T03:30:29.343Z,95.47
2018-12-05T03:31:32.245Z,95.64
2018-12-05T03:32:34.897Z,96.04
2018-12-05T03:33:38.410Z,96.29
2018-12-05T03:34:41.682Z,96.11
2018-12-05T03:35:45.364Z,95.45
2018-12-05T03:36:49.285Z,95.79
2018-12-05T03:37:52.660Z,95.89
2018-12-05T03:38:56.579Z,95.49
2018-12-05T03:39:59.595Z,95.79
2018-12-05T03:41:02.635Z,95.66
2018-12-05T03:42:05.241Z,96.16
2018-12-05T03:43:07.899Z,96.18
2018-12-05T03:44:12.778Z,95.83
2018-12-05T03:45:15.940Z,95.69
2018-12-05T03:46:19.282Z,96.09
2018-12-05T03:47:21.924Z,95.48
2018-12-05T03:48:25.794Z,95.63
2018-12-05T03:49:28.900Z,96.13
2018-12-05T03:50:31.550Z,96.37
2018-12-05T03:51:35.933Z,95.68
2018-12-05T03:52:41.048Z,95.95
2018-12-05T03:53:43.686Z,96.19
2018-12-05T03:54:46.960Z,95.86
2018-12-05T03:55:50.520Z,96.40
2018-12-05T03:56:53.165Z,96.32
2018-12-05T03:57:57.026Z,96.16
2018-12-05T03:59:01.064Z,95.77
2018-12-05T04:00:03.738Z,96.34
2018-12-05T04:01:06.318Z,95.66
2018-12-05T04:02:08.931Z,95.75
2018-12-05T04:03:11.513Z,96.14
2018-12-05T04:04:14.181Z,96.05
2018-12-05T04:05:17.291Z,96.07
2018-12-05T04:06:19.839Z,96.04
2018-12-05T04:07:22.496Z,96.07
2018-12-05T04:08:25.293Z,96.22
2018-12-05T04:09:27.953Z,96.17
2018-12-05T04:10:30.556Z,95.84
2018-12-05T04:11:33.556Z,96.06
2018-12-05T04:12:40.424Z,96.27
2018-12-05T04:13:41.611Z,96.13
2018-12-05T04:14:44.154Z,96.01
2018-12-05T04:15:46.731Z,95.94
2018-12-05T04:16:49.322Z,96.08
2018-12-05T04:17:52.372Z,96.46
2018-12-05T04:18:55.459Z,95.47
2018-12-05T04:19:58.015Z,95.81
2018-12-05T04:21:00.652Z,95.87
2018-12-05T04:22:03.519Z,96.23
2018-12-05T04:23:06.351Z,96.01
2018-12-05T04:24:09.469Z,96.32
2018-12-05T04:25:12.078Z,96.43
2018-12-05T04:26:14.607Z,96.18
2018-12-05T04:27:17.227Z,96.40
2018-12-05T04:28:19.820Z,95.93
2018-12-05T04:29:23.500Z,96.35
2018-12-05T04:30:26.464Z,95.64
2018-12-05T04:31:29.117Z,95.94
2018-12-05T04:32:31.822Z,96.09
2018-12-05T04:33:34.495Z,96.08
2018-12-05T04:34:37.075Z,96.29
2018-12-05T04:35:39.627Z,95.67
2018-12-05T04:36:42.664Z,96.13
2018-12-05T04:37:45.238Z,96.19
2018-12-05T04:38:47.835Z,96.05
2018-12-05T04:39:50.439Z,96.07
2018-12-05T04:40:53.019Z,95.92
2018-12-05T04:41:55.559Z,95.81
2018-12-05T04:42:58.164Z,95.36
2018-12-05T04:44:02.086Z,95.87
2018-12-05T04:45:04.954Z,95.75
2018-12-05T04:46:07.833Z,96.05
2018-12-05T04:47:10.410Z,95.27
2018-12-05T04:48:13.527Z,95.13
2018-12-05T04:49:16.414Z,95.96
2018-12-05T04:50:19.016Z,95.98
2018-12-05T04:51:21.611Z,95.71
2018-12-05T04:52:25.069Z,95.75
2018-12-05T04:53:27.592Z,95.30
2018-12-05T04:54:30.522Z,95.25
2018-12-05T04:55:33.091Z,95.14
2018-12-05T04:56:36.629Z,95.95
2018-12-05T04:57:39.256Z,95.31
2018-12-05T04:58:41.828Z,95.09
2018-12-05T04:59:44.417Z,95.10
2018-12-05T05:00:48.186Z,95.90
2018-12-05T05:01:50.792Z,95.16
2018-12-05T05:02:54.354Z,95.67
2018-12-05T05:03:56.964Z,95.43
2018-12-05T05:04:59.570Z,95.42
2018-12-05T05:06:02.178Z,95.45
2018-12-05T05:07:06.948Z,95.49
2018-12-05T05:08:10.754Z,96.05
2018-12-05T05:09:13.351Z,95.95
2018-12-05T05:10:17.214Z,95.87
2018-12-05T05:11:19.781Z,95.87
2018-12-05T05:12:23.316Z,95.50
2018-12-05T05:13:26.313Z,95.83
2018-12-05T05:14:28.867Z,95.65
2018-12-05T05:15:31.475Z,95.70
2018-12-05T05:16:34.068Z,95.69
2018-12-05T05:17:36.656Z,96.19
2018-12-05T05:18:40.288Z,96.10
2018-12-05T05:19:43.370Z,95.60
2018-12-05T05:20:45.947Z,96.18
2018-12-05T05:21:48.768Z,95.67
2018-12-05T05:22:51.867Z,95.83
2018-12-05T05:23:54.717Z,96.13
2018-12-05T05:24:57.594Z,95.74
2018-12-05T05:26:00.564Z,95.51
2018-12-05T05:27:03.169Z,95.98
2018-12-05T05:28:05.826Z,95.88
2018-12-05T05:29:08.559Z,95.44
2018-12-05T05:30:11.162Z,96.10
2018-12-05T05:31:13.794Z,96.04
2018-12-05T05:32:17.420Z,95.51
2018-12-05T05:33:19.980Z,96.04
2018-12-05T05:34:22.569Z,96.07
2018-12-05T05:35:25.207Z,96.29
2018-12-05T05:36:29.357Z,95.95
2018-12-05T05:37:32.030Z,95.65
2018-12-05T05:38:35.050Z,95.69
2018-12-05T05:39:37.604Z,95.96
2018-12-05T05:40:40.378Z,96.21
2018-12-05T05:41:42.965Z,96.21
2018-12-05T05:42:46.351Z,95.80
2018-12-05T05:43:49.635Z,96.41
2018-12-05T05:44:52.743Z,96.48
2018-12-05T05:45:55.341Z,96.29
2018-12-05T05:46:57.971Z,95.95
2018-12-05T05:48:00.566Z,96.03
2018-12-05T05:49:03.636Z,95.95
2018-12-05T05:50:06.582Z,96.23
2018-12-05T05:51:09.633Z,96.14
2018-12-05T05:52:12.246Z,96.10
2018-12-05T05:53:14.812Z,95.64
2018-12-05T05:54:17.385Z,96.22
2018-12-05T05:55:19.957Z,96.39
2018-12-05T05:56:22.557Z,95.93
2018-12-05T05:57:25.576Z,95.80
2018-12-05T05:58:28.150Z,95.47
2018-12-05T05:59:30.736Z,95.56
2018-12-05T06:00:33.311Z,95.36
2018-12-05T06:01:36.043Z,96.04
2018-12-05T06:02:38.664Z,96.05
2018-12-05T06:03:41.778Z,95.66
2018-12-05T06:04:44.467Z,96.23
2018-12-05T06:05:47.110Z,95.78
2018-12-05T06:06:49.687Z,96.23
2018-12-05T06:07:52.418Z,96.24
2018-12-05T06:08:56.213Z,95.94
2018-12-05T06:09:59.166Z,95.86
2018-12-05T06:11:01.779Z,96.31
2018-12-05T06:12:04.363Z,95.80
2018-12-05T06:13:06.971Z,95.77
2018-12-05T06:14:09.549Z,96.37
2018-12-05T06:15:12.159Z,95.91
2018-12-05T06:16:15.514Z,95.92
2018-12-05T06:17:18.143Z,96.68
2018-12-05T06:18:20.730Z,96.02
2018-12-05T06:19:23.706Z,96.22
2018-12-05T06:20:26.360Z,96.27
2018-12-05T06:21:29.363Z,96.15
2018-12-05T06:22:32.553Z,96.39
2018-12-05T06:23:35.363Z,96.14
2018-12-05T06:24:38.997Z,96.47
2018-12-05T06:25:41.597Z,95.93
2018-12-05T06:26:44.239Z,96.38
2018-12-05T06:27:46.950Z,96.07
2018-12-05T06:28:50.474Z,95.50
2018-12-05T06:29:56.066Z,95.60
2018-12-05T06:43:53.971Z,95.69
2018-12-05T06:46:06.853Z,95.75
2018-12-05T06:47:09.506Z,95.71
2018-12-05T06:48:12.166Z,95.97
2018-12-05T06:49:15.253Z,95.73
2018-12-05T06:50:17.946Z,95.84
2018-12-05T06:51:20.609Z,95.48
2018-12-05T06:52:23.302Z,95.66
2018-12-05T06:53:25.944Z,95.80
2018-12-05T06:54:28.651Z,95.48
2018-12-05T06:55:38.955Z,95.77
2018-12-05T06:56:37.432Z,95.87
2018-12-05T06:57:40.042Z,95.68
2018-12-05T06:59:21.572Z,95.98
2018-12-05T07:00:24.639Z,95.39
2018-12-05T07:01:27.200Z,95.75
2018-12-05T07:02:30.076Z,95.97
2018-12-05T07:03:32.684Z,95.18
2018-12-05T07:04:35.514Z,95.68
2018-12-05T07:05:38.185Z,96.12
2018-12-05T07:06:40.827Z,95.05
2018-12-05T07:07:43.471Z,95.41
2018-12-05T07:08:46.588Z,95.40
2018-12-05T07:09:49.471Z,95.51
2018-12-05T07:10:52.121Z,95.16
2018-12-05T07:11:54.760Z,95.64
2018-12-05T07:12:57.382Z,95.54
2018-12-05T07:14:00.007Z,95.41
2018-12-05T07:15:02.964Z,95.73
2018-12-05T07:16:05.640Z,95.87
2018-12-05T07:17:08.259Z,95.63
2018-12-05T07:18:10.884Z,95.68
2018-12-05T07:19:13.442Z,95.46
2018-12-05T07:20:16.075Z,95.77
2018-12-05T07:21:19.415Z,95.41
2018-12-05T07:22:22.164Z,95.78
2018-12-05T07:23:24.757Z,95.26
2018-12-05T07:24:28.545Z,94.96
2018-12-05T07:25:31.221Z,95.30
2018-12-05T07:26:33.841Z,95.76
2018-12-05T07:27:36.958Z,95.41
2018-12-05T07:28:39.509Z,95.79
2018-12-05T07:29:44.439Z,95.32
2018-12-05T07:30:47.741Z,95.41
2018-12-05T07:31:50.442Z,95.73
2018-12-05T07:32:53.180Z,95.42
2018-12-05T07:33:56.155Z,95.77
2018-12-05T07:34:59.698Z,95.46
2018-12-05T07:36:02.268Z,95.76
2018-12-05T07:37:04.880Z,95.50
2018-12-05T07:38:07.453Z,95.25
2018-12-05T07:39:10.046Z,95.66
2018-12-05T07:40:14.044Z,95.56
2018-12-05T07:41:16.732Z,95.83
2018-12-05T07:42:19.949Z,95.57
2018-12-05T07:43:22.610Z,95.20
2018-12-05T07:44:25.264Z,95.45
2018-12-05T07:45:27.917Z,95.16
2018-12-05T07:46:30.503Z,95.27
2018-12-05T07:47:33.153Z,94.93
2018-12-05T07:48:35.765Z,95.68
2018-12-05T07:49:38.384Z,95.36
2018-12-05T07:50:42.075Z,95.31
2018-12-05T07:51:44.652Z,95.92
2018-12-05T07:52:47.671Z,95.77
2018-12-05T07:53:50.322Z,95.22
2018-12-05T07:54:52.909Z,95.02
2018-12-05T07:55:56.071Z,95.10
2018-12-05T07:56:58.684Z,95.24
2018-12-05T07:58:01.333Z,95.09
2018-12-05T07:59:04.195Z,95.54
2018-12-05T08:00:07.714Z,95.63
2018-12-05T08:01:10.291Z,95.16
2018-12-05T08:02:13.585Z,95.13
2018-12-05T08:03:16.274Z,95.24
2018-12-05T08:04:18.973Z,95.02
2018-12-05T08:05:22.748Z,95.15
2018-12-05T08:06:25.730Z,95.40
2018-12-05T08:07:28.291Z,95.51
2018-12-05T08:08:33.393Z,95.12
2018-12-05T08:09:36.252Z,94.93
2018-12-05T08:10:40.020Z,95.39
2018-12-05T08:11:44.188Z,94.96
2018-12-05T08:12:47.604Z,95.50
2018-12-05T08:13:52.424Z,95.34
2018-12-05T08:14:56.042Z,95.09
2018-12-05T08:15:58.757Z,94.86
2018-12-05T08:17:01.348Z,95.39
2018-12-05T08:18:04.260Z,95.01
2018-12-05T08:19:06.869Z,94.83
2018-12-05T08:20:09.459Z,95.37
2018-12-05T08:21:12.100Z,94.99
2018-12-05T08:22:14.895Z,94.72
2018-12-05T08:23:17.837Z,94.53
2018-12-05T08:24:21.029Z,94.72
2018-12-05T08:25:23.677Z,95.23
2018-12-05T08:26:26.284Z,94.83
2018-12-05T08:27:28.929Z,95.29
2018-12-05T08:28:31.655Z,95.35
2018-12-05T08:29:34.543Z,94.95
2018-12-05T08:30:37.506Z,95.54
2018-12-05T08:31:40.619Z,95.47
2018-12-05T08:32:43.219Z,95.00
2018-12-05T08:33:46.543Z,94.68
2018-12-05T08:34:50.016Z,95.20
2018-12-05T08:35:52.652Z,95.30
2018-12-05T08:36:56.002Z,94.78
2018-12-05T08:37:58.580Z,94.73
2018-12-05T08:39:01.237Z,94.51
2018-12-05T08:40:04.560Z,94.90
2018-12-05T08:41:07.140Z,94.41
2018-12-05T08:42:09.721Z,94.51
2018-12-05T08:43:13.400Z,94.14
2018-12-05T08:44:16.008Z,93.77
2018-12-05T08:45:18.604Z,93.50
2018-12-05T08:46:22.222Z,93.28
2018-12-05T08:47:25.527Z,93.45
2018-12-05T08:48:28.565Z,93.36
2018-12-05T08:49:32.376Z,92.86
2018-12-05T08:50:36.413Z,92.76
2018-12-05T08:51:39.058Z,92.74
2018-12-05T08:52:41.747Z,92.87
2018-12-05T08:53:44.384Z,92.50
2018-12-05T08:54:46.987Z,92.76
2018-12-05T08:55:50.119Z,92.96
2018-12-05T08:56:52.950Z,92.01
2018-12-05T08:57:55.604Z,92.31
2018-12-05T08:58:59.402Z,92.00
2018-12-05T09:00:02.927Z,92.02
2018-12-05T09:01:05.574Z,92.39
2018-12-05T09:02:11.717Z,91.74
2018-12-05T09:03:14.303Z,91.83
2018-12-05T09:04:21.063Z,91.41
2018-12-05T09:05:23.757Z,91.48
2018-12-05T09:06:27.650Z,91.19
2018-12-05T09:07:30.777Z,91.35
2018-12-05T09:08:35.424Z,91.58
2018-12-05T09:09:38.277Z,91.19
2018-12-05T09:10:43.364Z,91.29
2018-12-05T09:11:46.604Z,91.33
2018-12-05T09:12:49.826Z,91.54
2018-12-05T09:13:52.790Z,91.49
2018-12-05T09:14:56.271Z,91.59
2018-12-05T09:15:59.276Z,91.09
2018-12-05T09:17:05.283Z,91.37
2018-12-05T09:18:09.358Z,90.96
2018-12-05T09:19:12.636Z,91.24
2018-12-05T09:20:15.332Z,91.21
2018-12-05T09:21:18.683Z,90.95
2018-12-05T09:22:21.423Z,90.99
2018-12-05T09:23:24.254Z,90.94
2018-12-05T09:24:30.441Z,91.34
2018-12-05T09:25:33.850Z,90.71
2018-12-05T09:26:38.032Z,91.14
2018-12-05T09:27:41.995Z,91.06
2018-12-05T09:28:45.737Z,90.76
2018-12-05T09:29:48.422Z,90.92
2018-12-05T09:30:51.092Z,90.83
2018-12-05T09:31:54.530Z,90.87
2018-12-05T09:32:57.441Z,91.14
2018-12-05T09:34:00.408Z,90.95
2018-12-05T09:35:03.804Z,91.30
2018-12-05T09:36:06.538Z,91.14
2018-12-05T09:37:09.114Z,91.05
2018-12-05T09:38:12.395Z,90.51
2018-12-05T09:39:16.520Z,90.21
2018-12-05T09:40:19.982Z,90.77
2018-12-05T09:41:23.154Z,90.97
2018-12-05T09:42:27.399Z,90.57
2018-12-05T09:43:31.692Z,90.77
2018-12-05T09:44:34.337Z,91.12
2018-12-05T09:45:37.009Z,91.44
2018-12-05T09:46:39.638Z,90.84
2018-12-05T09:47:42.281Z,90.79
2018-12-05T09:48:45.923Z,90.77
2018-12-05T09:49:48.597Z,90.74
2018-12-05T09:50:51.524Z,90.87
2018-12-05T09:51:55.287Z,91.04
2018-12-05T09:52:57.864Z,90.99
2018-12-05T09:54:00.516Z,90.93
2018-12-05T09:55:03.460Z,90.39
2018-12-05T09:56:06.135Z,90.58
2018-12-05T09:57:08.797Z,90.27
2018-12-05T09:58:14.710Z,90.26
2018-12-05T09:59:17.377Z,89.96
2018-12-05T10:00:20.891Z,90.16
2018-12-05T10:01:24.744Z,90.05
2018-12-05T10:02:27.354Z,89.98
2018-12-05T10:03:29.988Z,90.37
2018-12-05T10:04:32.559Z,90.01
2018-12-05T10:05:35.207Z,90.15
2018-12-05T10:06:37.835Z,89.93
2018-12-05T10:07:41.825Z,90.07
2018-12-05T10:08:44.419Z,90.05
2018-12-05T10:09:47.715Z,89.98
2018-12-05T10:10:50.319Z,89.94
2018-12-05T10:11:54.581Z,90.04
2018-12-05T10:12:57.249Z,90.06
2018-12-05T10:14:00.345Z,90.04
2018-12-05T10:15:03.702Z,89.97
2018-12-05T10:16:06.319Z,90.21
2018-12-05T10:17:09.493Z,89.84
2018-12-05T10:18:13.233Z,89.66
2018-12-05T10:19:15.931Z,89.69
2018-12-05T10:20:19.023Z,89.65
2018-12-05T10:21:21.759Z,89.63
2018-12-05T10:23:24.780Z,89.27
2018-12-05T10:24:27.530Z,89.73
2018-12-05T10:25:30.111Z,89.70
2018-12-05T10:26:34.198Z,90.09
2018-12-05T10:27:36.875Z,90.10
2018-12-05T10:28:40.159Z,89.73
2018-12-05T10:29:42.823Z,90.08
2018-12-05T10:30:45.435Z,89.99
2018-12-05T10:31:48.000Z,90.02
2018-12-05T10:32:51.382Z,89.66
2018-12-05T10:33:54.051Z,89.82
2018-12-05T10:34:57.194Z,89.74
2018-12-05T10:35:59.832Z,89.88
2018-12-05T10:37:02.590Z,90.07
2018-12-05T10:38:05.296Z,89.51
2018-12-05T10:39:08.501Z,89.97
2018-12-05T10:40:11.445Z,89.53
2018-12-05T10:42:34.180Z,89.57
2018-12-05T10:43:36.804Z,89.70
2018-12-05T10:44:39.488Z,89.46
2018-12-05T10:45:42.977Z,89.60
2018-12-05T10:46:45.653Z,89.21
2018-12-05T10:47:48.255Z,89.62
2018-12-05T10:48:51.307Z,89.91
2018-12-05T10:49:53.990Z,89.63
2018-12-05T10:50:56.591Z,89.77
2018-12-05T10:51:59.791Z,89.30
2018-12-05T10:53:03.558Z,89.11
2018-12-05T10:54:07.535Z,89.30
2018-12-05T10:55:10.147Z,89.11
2018-12-05T10:56:13.554Z,88.82
2018-12-05T10:57:17.579Z,88.81
2018-12-05T10:58:20.686Z,88.52
2018-12-05T10:59:24.503Z,88.43
2018-12-05T11:00:32.122Z,88.11
2018-12-05T11:01:39.879Z,88.57
2018-12-05T11:02:47.577Z,88.36
2018-12-05T11:03:50.901Z,88.45
2018-12-05T11:04:58.672Z,88.17
2018-12-05T11:06:09.617Z,88.28
2018-12-05T11:07:18.260Z,88.38
2018-12-05T11:08:25.333Z,87.99
2018-12-05T11:09:33.159Z,88.22
2018-12-05T11:10:41.106Z,88.26
2018-12-05T11:11:48.891Z,88.66
2018-12-05T11:13:57.700Z,88.46
2018-12-05T11:15:06.137Z,88.24
2018-12-05T11:16:14.785Z,88.64
2018-12-05T11:17:22.560Z,88.23
2018-12-05T11:18:30.404Z,87.81
2018-12-05T11:19:38.087Z,88.28
2018-12-05T11:20:45.716Z,87.97
2018-12-05T11:21:53.915Z,88.00
2018-12-05T11:23:01.727Z,88.21
2018-12-05T11:24:15.284Z,88.26
2018-12-05T11:25:20.346Z,87.97
2018-12-05T11:26:24.103Z,88.20
2018-12-05T11:27:26.745Z,88.40
2018-12-05T11:28:29.850Z,88.24
2018-12-05T11:29:32.589Z,88.63
2018-12-05T11:42:53.718Z,88.58
2018-12-05T11:45:07.306Z,88.11
2018-12-05T11:46:10.024Z,88.71
2018-12-05T11:47:13.544Z,88.45
2018-12-05T11:48:17.615Z,88.58
2018-12-05T11:49:20.723Z,88.18
2018-12-05T11:50:23.541Z,88.09
2018-12-05T11:51:27.766Z,88.19
2018-12-05T11:52:30.573Z,88.19
2018-12-05T11:53:33.277Z,88.13
2018-12-05T11:54:36.742Z,88.59
2018-12-05T11:55:40.294Z,87.91
2018-12-05T11:56:47.788Z,87.99
2018-12-05T11:57:50.463Z,88.30
2018-12-05T11:58:53.221Z,87.99
2018-12-05T11:59:56.677Z,88.21
2018-12-05T12:01:02.189Z,88.26
2018-12-05T12:02:10.575Z,87.81
2018-12-05T12:03:16.206Z,88.28
2018-12-05T12:04:18.975Z,87.78
2018-12-05T12:05:21.686Z,88.14
2018-12-05T12:06:24.293Z,87.91
2018-12-05T12:07:27.291Z,88.04
2018-12-05T12:08:29.938Z,87.77
2018-12-05T12:09:32.563Z,87.61
2018-12-05T12:10:41.387Z,87.69
2018-12-05T12:11:44.027Z,87.55
2018-12-05T12:12:51.871Z,88.25
2018-12-05T12:13:54.561Z,88.12
2018-12-05T12:15:00.867Z,87.50
2018-12-05T12:16:05.254Z,87.85
2018-12-05T12:17:09.016Z,87.97
2018-12-05T12:18:11.673Z,88.28
2018-12-05T12:19:16.219Z,87.95
2018-12-05T12:20:18.839Z,88.25
2018-12-05T12:21:21.596Z,88.49
2018-12-05T12:22:24.522Z,88.28
2018-12-05T12:23:27.373Z,88.39
2018-12-05T12:24:34.861Z,88.45
2018-12-05T12:25:36.387Z,88.36
2018-12-05T12:26:39.058Z,88.61
2018-12-05T12:27:42.675Z,88.21
2018-12-05T12:28:47.115Z,88.05
2018-12-05T12:29:49.884Z,88.41
2018-12-05T12:30:52.841Z,88.29
2018-12-05T12:31:56.605Z,88.00
2018-12-05T12:32:59.370Z,88.40
2018-12-05T12:34:02.218Z,88.42
2018-12-05T12:35:04.907Z,88.13
2018-12-05T12:36:08.954Z,88.24
2018-12-05T12:37:12.554Z,88.48
2018-12-05T12:38:15.799Z,88.51
2018-12-05T12:39:19.531Z,88.46
2018-12-05T12:40:23.035Z,88.54
2018-12-05T12:41:27.931Z,88.12
2018-12-05T12:43:55.170Z,87.98
2018-12-05T12:44:58.379Z,88.48
2018-12-05T12:46:01.277Z,88.53
2018-12-05T12:47:04.203Z,88.27
2018-12-05T12:48:08.382Z,88.55
2018-12-05T12:49:11.405Z,88.02
2018-12-05T12:50:14.723Z,88.32
2018-12-05T12:51:17.817Z,87.97
2018-12-05T12:52:20.819Z,87.83
2018-12-05T12:53:23.426Z,88.45
2018-12-05T12:54:26.899Z,88.67
2018-12-05T12:55:29.963Z,88.71
2018-12-05T12:56:33.824Z,88.13
2018-12-05T12:57:36.440Z,88.21
2018-12-05T12:58:40.312Z,88.52
2018-12-05T12:59:43.019Z,88.44
2018-12-05T13:00:46.274Z,88.43
2018-12-05T13:01:49.240Z,88.57
2018-12-05T13:02:52.789Z,88.41
2018-12-05T13:03:56.755Z,88.14
2018-12-05T13:05:00.467Z,88.63
2018-12-05T13:06:04.894Z,88.88
2018-12-05T13:07:07.948Z,88.42
2018-12-05T13:08:12.086Z,88.42
2018-12-05T13:09:17.399Z,88.21
2018-12-05T13:10:21.279Z,88.67
2018-12-05T13:11:27.466Z,88.49
2018-12-05T13:12:35.742Z,88.55
2018-12-05T13:13:38.799Z,88.22
2018-12-05T13:14:41.796Z,88.30
2018-12-05T13:15:46.683Z,88.49
2018-12-05T13:16:51.628Z,88.83
2018-12-05T13:17:54.303Z,88.47
2018-12-05T13:18:57.177Z,88.33
2018-12-05T13:20:00.799Z,88.74
2018-12-05T13:21:04.398Z,88.38
2018-12-05T13:22:07.562Z,88.29
2018-12-05T13:23:10.538Z,88.30
2018-12-05T13:24:13.707Z,88.40
2018-12-05T13:25:16.821Z,88.46
2018-12-05T13:26:19.692Z,88.51
2018-12-05T13:27:23.610Z,88.51
2018-12-05T13:28:26.472Z,88.55
2018-12-05T13:29:29.489Z,88.59
2018-12-05T13:30:32.429Z,88.23
2018-12-05T13:31:35.635Z,88.07
2018-12-05T13:32:39.528Z,88.16
2018-12-05T13:33:42.582Z,88.33
2018-12-05T13:34:46.825Z,88.12
2018-12-05T13:35:49.666Z,87.89
2018-12-05T13:36:52.837Z,87.38
2018-12-05T13:37:56.036Z,87.31
2018-12-05T13:39:01.875Z,86.88
2018-12-05T13:40:04.920Z,87.45
2018-12-05T13:41:07.621Z,87.54
2018-12-05T13:42:14.771Z,88.13
2018-12-05T13:43:18.253Z,87.54
2018-12-05T13:44:21.658Z,87.85
2018-12-05T13:45:24.998Z,87.88
2018-12-05T13:46:30.152Z,88.38
2018-12-05T13:47:32.820Z,88.03
2018-12-05T13:48:35.850Z,87.96
2018-12-05T13:49:40.153Z,87.92
2018-12-05T13:50:43.687Z,87.75
2018-12-05T13:51:47.746Z,87.85
2018-12-05T13:52:50.513Z,87.64
2018-12-05T13:53:54.838Z,87.74
2018-12-05T13:54:57.725Z,87.17
2018-12-05T13:56:00.585Z,86.43
2018-12-05T13:57:04.364Z,86.12
2018-12-05T13:58:08.300Z,86.63
2018-12-05T13:59:10.908Z,86.98
2018-12-05T14:00:13.522Z,87.00
2018-12-05T14:01:16.552Z,87.02
2018-12-05T14:02:19.857Z,87.24
2018-12-05T14:03:22.855Z,87.57
2018-12-05T14:04:26.150Z,86.95
2018-12-05T14:05:30.495Z,86.90
2018-12-05T14:06:35.176Z,86.55
2018-12-05T14:07:39.380Z,86.42